sensor_id;sensor_type;location;lat;lon;timestamp;P1;durP1;ratioP1;P2;durP2;ratioP2
48042;SDS011;33988;47.992;8.820;2023-02-02T00:01:44;4.32;;;1.45;;
48042;SDS011;33988;47.992;8.820;2023-02-02T00:06:54;5.38;;;1.73;;
48042;SDS011;33988;47.992;8.820;2023-02-02T00:09:25;3.00;;;1.40;;
48042;SDS011;33988;47.992;8.820;2023-02-02T00:11:59;6.03;;;1.50;;
48042;SDS011;33988;47.992;8.820;2023-02-02T00:14:26;4.18;;;1.40;;
48042;SDS011;33988;47.992;8.820;2023-02-02T00:16:54;2.58;;;1.52;;
48042;SDS011;33988;47.992;8.820;2023-02-02T00:19:28;6.70;;;1.42;;
48042;SDS011;33988;47.992;8.820;2023-02-02T00:21:58;3.63;;;1.45;;
48042;SDS011;33988;47.992;8.820;2023-02-02T00:24:25;4.82;;;1.70;;
48042;SDS011;33988;47.992;8.820;2023-02-02T00:26:53;3.72;;;1.75;;
48042;SDS011;33988;47.992;8.820;2023-02-02T00:29:24;6.13;;;1.55;;
48042;SDS011;33988;47.992;8.820;2023-02-02T00:31:54;5.50;;;1.63;;
48042;SDS011;33988;47.992;8.820;2023-02-02T00:34:21;10.10;;;2.40;;
48042;SDS011;33988;47.992;8.820;2023-02-02T00:36:49;2.83;;;1.67;;
48042;SDS011;33988;47.992;8.820;2023-02-02T00:39:21;4.75;;;1.67;;
48042;SDS011;33988;47.992;8.820;2023-02-02T00:41:55;5.70;;;1.73;;
48042;SDS011;33988;47.992;8.820;2023-02-02T00:44:24;3.40;;;1.60;;
48042;SDS011;33988;47.992;8.820;2023-02-02T00:47:12;6.15;;;1.58;;
48042;SDS011;33988;47.992;8.820;2023-02-02T00:49:38;4.95;;;1.63;;
48042;SDS011;33988;47.992;8.820;2023-02-02T00:52:05;5.97;;;1.80;;
48042;SDS011;33988;47.992;8.820;2023-02-02T00:54:32;3.10;;;1.35;;
48042;SDS011;33988;47.992;8.820;2023-02-02T00:57:01;4.07;;;1.48;;
48042;SDS011;33988;47.992;8.820;2023-02-02T00:59:31;4.22;;;1.70;;
48042;SDS011;33988;47.992;8.820;2023-02-02T01:02:00;5.85;;;1.58;;
48042;SDS011;33988;47.992;8.820;2023-02-02T01:04:30;5.35;;;1.98;;
48042;SDS011;33988;47.992;8.820;2023-02-02T01:06:57;4.13;;;1.77;;
48042;SDS011;33988;47.992;8.820;2023-02-02T01:09:26;6.45;;;1.80;;
48042;SDS011;33988;47.992;8.820;2023-02-02T01:11:56;10.77;;;2.17;;
48042;SDS011;33988;47.992;8.820;2023-02-02T01:14:23;6.07;;;2.08;;
48042;SDS011;33988;47.992;8.820;2023-02-02T01:16:53;4.97;;;1.80;;
48042;SDS011;33988;47.992;8.820;2023-02-02T01:19:20;7.50;;;1.80;;
48042;SDS011;33988;47.992;8.820;2023-02-02T01:21:49;6.82;;;1.90;;
48042;SDS011;33988;47.992;8.820;2023-02-02T01:24:18;9.20;;;1.90;;
48042;SDS011;33988;47.992;8.820;2023-02-02T01:26:47;9.27;;;2.00;;
48042;SDS011;33988;47.992;8.820;2023-02-02T01:29:14;7.18;;;2.13;;
48042;SDS011;33988;47.992;8.820;2023-02-02T01:31:41;4.75;;;1.83;;
48042;SDS011;33988;47.992;8.820;2023-02-02T01:34:11;7.93;;;2.20;;
48042;SDS011;33988;47.992;8.820;2023-02-02T01:36:38;5.65;;;1.80;;
48042;SDS011;33988;47.992;8.820;2023-02-02T01:39:08;5.20;;;1.65;;
48042;SDS011;33988;47.992;8.820;2023-02-02T01:41:35;7.82;;;2.08;;
48042;SDS011;33988;47.992;8.820;2023-02-02T01:44:05;7.47;;;1.90;;
48042;SDS011;33988;47.992;8.820;2023-02-02T01:47:21;5.60;;;1.33;;
48042;SDS011;33988;47.992;8.820;2023-02-02T01:49:52;9.45;;;2.08;;
48042;SDS011;33988;47.992;8.820;2023-02-02T01:52:21;6.15;;;1.67;;
48042;SDS011;33988;47.992;8.820;2023-02-02T01:54:56;5.03;;;1.98;;
48042;SDS011;33988;47.992;8.820;2023-02-02T02:00:18;7.80;;;1.67;;
48042;SDS011;33988;47.992;8.820;2023-02-02T02:02:53;5.97;;;1.80;;
48042;SDS011;33988;47.992;8.820;2023-02-02T02:05:30;5.22;;;2.20;;
48042;SDS011;33988;47.992;8.820;2023-02-02T02:08:12;3.80;;;1.77;;
48042;SDS011;33988;47.992;8.820;2023-02-02T02:10:44;3.33;;;1.42;;
48042;SDS011;33988;47.992;8.820;2023-02-02T02:13:11;6.55;;;1.73;;
48042;SDS011;33988;47.992;8.820;2023-02-02T02:15:45;9.68;;;2.03;;
48042;SDS011;33988;47.992;8.820;2023-02-02T02:21:46;7.40;;;1.65;;
48042;SDS011;33988;47.992;8.820;2023-02-02T02:25:05;5.50;;;1.80;;
48042;SDS011;33988;47.992;8.820;2023-02-02T02:28:32;3.05;;;1.38;;
48042;SDS011;33988;47.992;8.820;2023-02-02T02:37:09;7.78;;;1.60;;
48042;SDS011;33988;47.992;8.820;2023-02-02T02:42:21;5.43;;;1.50;;
48042;SDS011;33988;47.992;8.820;2023-02-02T02:44:52;5.00;;;1.60;;
48042;SDS011;33988;47.992;8.820;2023-02-02T02:47:20;7.35;;;1.83;;
48042;SDS011;33988;47.992;8.820;2023-02-02T02:49:48;3.10;;;1.50;;
48042;SDS011;33988;47.992;8.820;2023-02-02T02:52:15;4.53;;;1.60;;
48042;SDS011;33988;47.992;8.820;2023-02-02T03:06:54;3.10;;;1.30;;
48042;SDS011;33988;47.992;8.820;2023-02-02T03:09:32;4.22;;;1.40;;
48042;SDS011;33988;47.992;8.820;2023-02-02T03:12:07;2.53;;;1.27;;
48042;SDS011;33988;47.992;8.820;2023-02-02T03:14:34;3.78;;;1.50;;
48042;SDS011;33988;47.992;8.820;2023-02-02T03:17:02;4.05;;;1.50;;
48042;SDS011;33988;47.992;8.820;2023-02-02T03:19:32;2.70;;;1.35;;
48042;SDS011;33988;47.992;8.820;2023-02-02T03:21:59;2.53;;;1.10;;
48042;SDS011;33988;47.992;8.820;2023-02-02T03:24:28;2.17;;;1.10;;
48042;SDS011;33988;47.992;8.820;2023-02-02T03:26:56;2.33;;;1.10;;
48042;SDS011;33988;47.992;8.820;2023-02-02T03:29:23;4.05;;;0.95;;
48042;SDS011;33988;47.992;8.820;2023-02-02T03:31:52;3.58;;;1.20;;
48042;SDS011;33988;47.992;8.820;2023-02-02T03:34:22;4.68;;;1.45;;
48042;SDS011;33988;47.992;8.820;2023-02-02T03:36:54;4.30;;;1.10;;
48042;SDS011;33988;47.992;8.820;2023-02-02T03:39:21;4.78;;;1.20;;
48042;SDS011;33988;47.992;8.820;2023-02-02T03:41:50;2.67;;;0.90;;
48042;SDS011;33988;47.992;8.820;2023-02-02T03:44:18;3.40;;;1.48;;
48042;SDS011;33988;47.992;8.820;2023-02-02T03:46:45;2.90;;;1.05;;
48042;SDS011;33988;47.992;8.820;2023-02-02T03:49:12;5.47;;;1.27;;
48042;SDS011;33988;47.992;8.820;2023-02-02T03:51:39;4.60;;;1.08;;
48042;SDS011;33988;47.992;8.820;2023-02-02T03:54:10;2.88;;;1.23;;
48042;SDS011;33988;47.992;8.820;2023-02-02T03:56:37;3.00;;;1.02;;
48042;SDS011;33988;47.992;8.820;2023-02-02T03:59:05;3.45;;;1.40;;
48042;SDS011;33988;47.992;8.820;2023-02-02T04:01:34;4.60;;;1.40;;
48042;SDS011;33988;47.992;8.820;2023-02-02T04:04:02;2.75;;;0.98;;
48042;SDS011;33988;47.992;8.820;2023-02-02T04:06:29;2.35;;;1.00;;
48042;SDS011;33988;47.992;8.820;2023-02-02T04:08:59;2.85;;;1.23;;
48042;SDS011;33988;47.992;8.820;2023-02-02T04:11:33;4.10;;;1.30;;
48042;SDS011;33988;47.992;8.820;2023-02-02T04:14:00;2.05;;;1.08;;
48042;SDS011;33988;47.992;8.820;2023-02-02T04:16:27;3.58;;;1.15;;
48042;SDS011;33988;47.992;8.820;2023-02-02T04:19:02;3.72;;;1.13;;
48042;SDS011;33988;47.992;8.820;2023-02-02T04:21:30;3.90;;;1.50;;
48042;SDS011;33988;47.992;8.820;2023-02-02T04:24:00;2.80;;;1.25;;
48042;SDS011;33988;47.992;8.820;2023-02-02T04:26:27;4.07;;;1.40;;
48042;SDS011;33988;47.992;8.820;2023-02-02T04:28:54;6.15;;;1.10;;
48042;SDS011;33988;47.992;8.820;2023-02-02T04:31:23;2.40;;;1.02;;
48042;SDS011;33988;47.992;8.820;2023-02-02T04:33:55;2.22;;;0.95;;
48042;SDS011;33988;47.992;8.820;2023-02-02T04:36:22;1.25;;;0.95;;
48042;SDS011;33988;47.992;8.820;2023-02-02T04:38:52;1.73;;;0.90;;
48042;SDS011;33988;47.992;8.820;2023-02-02T04:41:22;4.18;;;1.40;;
48042;SDS011;33988;47.992;8.820;2023-02-02T04:43:49;7.55;;;1.38;;
48042;SDS011;33988;47.992;8.820;2023-02-02T04:46:19;3.42;;;1.00;;
48042;SDS011;33988;47.992;8.820;2023-02-02T04:48:47;3.88;;;1.10;;
48042;SDS011;33988;47.992;8.820;2023-02-02T04:51:14;3.05;;;1.00;;
48042;SDS011;33988;47.992;8.820;2023-02-02T04:53:43;1.85;;;0.98;;
48042;SDS011;33988;47.992;8.820;2023-02-02T04:56:12;6.30;;;1.40;;
48042;SDS011;33988;47.992;8.820;2023-02-02T04:58:44;2.67;;;1.20;;
48042;SDS011;33988;47.992;8.820;2023-02-02T05:01:13;3.47;;;1.50;;
48042;SDS011;33988;47.992;8.820;2023-02-02T05:03:43;2.13;;;0.90;;
48042;SDS011;33988;47.992;8.820;2023-02-02T05:06:13;2.40;;;1.20;;
48042;SDS011;33988;47.992;8.820;2023-02-02T05:08:41;3.72;;;1.25;;
48042;SDS011;33988;47.992;8.820;2023-02-02T05:11:09;4.65;;;1.88;;
48042;SDS011;33988;47.992;8.820;2023-02-02T05:13:39;4.38;;;1.30;;
48042;SDS011;33988;47.992;8.820;2023-02-02T05:16:14;3.63;;;1.10;;
48042;SDS011;33988;47.992;8.820;2023-02-02T05:18:50;3.10;;;1.10;;
48042;SDS011;33988;47.992;8.820;2023-02-02T05:21:20;3.88;;;1.00;;
48042;SDS011;33988;47.992;8.820;2023-02-02T05:23:47;2.65;;;1.30;;
48042;SDS011;33988;47.992;8.820;2023-02-02T05:26:15;6.57;;;1.63;;
48042;SDS011;33988;47.992;8.820;2023-02-02T05:28:49;2.28;;;1.10;;
48042;SDS011;33988;47.992;8.820;2023-02-02T05:31:21;4.38;;;1.42;;
48042;SDS011;33988;47.992;8.820;2023-02-02T05:33:50;3.30;;;1.08;;
48042;SDS011;33988;47.992;8.820;2023-02-02T05:36:17;2.35;;;1.05;;
48042;SDS011;33988;47.992;8.820;2023-02-02T05:38:44;4.97;;;1.13;;
48042;SDS011;33988;47.992;8.820;2023-02-02T05:41:11;5.55;;;1.30;;
48042;SDS011;33988;47.992;8.820;2023-02-02T05:43:38;2.53;;;1.30;;
48042;SDS011;33988;47.992;8.820;2023-02-02T05:46:07;2.97;;;1.02;;
48042;SDS011;33988;47.992;8.820;2023-02-02T05:48:36;5.70;;;1.80;;
48042;SDS011;33988;47.992;8.820;2023-02-02T05:51:37;3.47;;;1.20;;
48042;SDS011;33988;47.992;8.820;2023-02-02T05:54:09;3.67;;;1.05;;
48042;SDS011;33988;47.992;8.820;2023-02-02T05:56:36;3.38;;;1.40;;
48042;SDS011;33988;47.992;8.820;2023-02-02T05:59:03;3.72;;;1.20;;
48042;SDS011;33988;47.992;8.820;2023-02-02T06:01:35;2.35;;;1.05;;
48042;SDS011;33988;47.992;8.820;2023-02-02T06:06:31;1.05;;;0.85;;
48042;SDS011;33988;47.992;8.820;2023-02-02T06:08:58;2.83;;;1.20;;
48042;SDS011;33988;47.992;8.820;2023-02-02T06:11:24;3.42;;;1.73;;
48042;SDS011;33988;47.992;8.820;2023-02-02T06:13:51;2.90;;;1.17;;
48042;SDS011;33988;47.992;8.820;2023-02-02T06:16:21;5.03;;;1.33;;
48042;SDS011;33988;47.992;8.820;2023-02-02T06:18:48;1.80;;;1.15;;
48042;SDS011;33988;47.992;8.820;2023-02-02T06:21:15;4.05;;;1.27;;
48042;SDS011;33988;47.992;8.820;2023-02-02T06:23:50;3.30;;;1.30;;
48042;SDS011;33988;47.992;8.820;2023-02-02T06:26:17;2.38;;;1.17;;
48042;SDS011;33988;47.992;8.820;2023-02-02T06:28:49;3.40;;;1.20;;
48042;SDS011;33988;47.992;8.820;2023-02-02T06:31:20;3.10;;;1.15;;
48042;SDS011;33988;47.992;8.820;2023-02-02T06:33:52;2.42;;;1.10;;
48042;SDS011;33988;47.992;8.820;2023-02-02T06:36:22;2.20;;;1.25;;
48042;SDS011;33988;47.992;8.820;2023-02-02T06:38:54;2.75;;;1.30;;
48042;SDS011;33988;47.992;8.820;2023-02-02T06:41:25;2.40;;;1.13;;
48042;SDS011;33988;47.992;8.820;2023-02-02T06:43:54;2.92;;;1.58;;
48042;SDS011;33988;47.992;8.820;2023-02-02T06:46:21;3.25;;;1.00;;
48042;SDS011;33988;47.992;8.820;2023-02-02T06:48:51;1.83;;;1.00;;
48042;SDS011;33988;47.992;8.820;2023-02-02T06:51:20;2.83;;;1.02;;
48042;SDS011;33988;47.992;8.820;2023-02-02T06:53:47;3.65;;;1.00;;
48042;SDS011;33988;47.992;8.820;2023-02-02T06:56:15;2.97;;;1.17;;
48042;SDS011;33988;47.992;8.820;2023-02-02T06:58:44;5.00;;;1.23;;
48042;SDS011;33988;47.992;8.820;2023-02-02T07:01:11;1.48;;;1.02;;
48042;SDS011;33988;47.992;8.820;2023-02-02T07:03:39;2.30;;;1.00;;
48042;SDS011;33988;47.992;8.820;2023-02-02T07:06:09;2.65;;;1.13;;
48042;SDS011;33988;47.992;8.820;2023-02-02T07:08:41;5.50;;;1.15;;
48042;SDS011;33988;47.992;8.820;2023-02-02T07:11:09;2.45;;;0.80;;
48042;SDS011;33988;47.992;8.820;2023-02-02T07:13:45;4.40;;;1.20;;
48042;SDS011;33988;47.992;8.820;2023-02-02T07:18:42;2.08;;;1.45;;
48042;SDS011;33988;47.992;8.820;2023-02-02T07:21:20;2.03;;;1.00;;
48042;SDS011;33988;47.992;8.820;2023-02-02T07:23:50;3.35;;;1.30;;
48042;SDS011;33988;47.992;8.820;2023-02-02T07:26:19;2.78;;;1.15;;
48042;SDS011;33988;47.992;8.820;2023-02-02T07:28:50;5.43;;;1.40;;
48042;SDS011;33988;47.992;8.820;2023-02-02T07:31:23;2.15;;;1.20;;
48042;SDS011;33988;47.992;8.820;2023-02-02T07:33:54;2.55;;;1.38;;
48042;SDS011;33988;47.992;8.820;2023-02-02T07:36:21;5.75;;;1.52;;
48042;SDS011;33988;47.992;8.820;2023-02-02T07:38:50;2.22;;;1.40;;
48042;SDS011;33988;47.992;8.820;2023-02-02T07:41:22;2.78;;;1.60;;
48042;SDS011;33988;47.992;8.820;2023-02-02T07:43:50;4.60;;;1.48;;
48042;SDS011;33988;47.992;8.820;2023-02-02T07:46:19;4.50;;;1.70;;
48042;SDS011;33988;47.992;8.820;2023-02-02T07:48:51;3.28;;;1.65;;
48042;SDS011;33988;47.992;8.820;2023-02-02T07:51:22;2.67;;;1.50;;
48042;SDS011;33988;47.992;8.820;2023-02-02T07:53:51;2.28;;;1.17;;
48042;SDS011;33988;47.992;8.820;2023-02-02T07:56:21;2.95;;;1.50;;
48042;SDS011;33988;47.992;8.820;2023-02-02T07:58:53;3.20;;;1.35;;
48042;SDS011;33988;47.992;8.820;2023-02-02T08:01:22;3.17;;;1.30;;
48042;SDS011;33988;47.992;8.820;2023-02-02T08:03:51;4.63;;;1.40;;
48042;SDS011;33988;47.992;8.820;2023-02-02T08:06:21;5.13;;;2.10;;
48042;SDS011;33988;47.992;8.820;2023-02-02T08:08:50;5.00;;;1.60;;
48042;SDS011;33988;47.992;8.820;2023-02-02T08:11:19;3.20;;;1.30;;
48042;SDS011;33988;47.992;8.820;2023-02-02T08:13:48;6.43;;;1.70;;
48042;SDS011;33988;47.992;8.820;2023-02-02T08:16:24;2.75;;;1.50;;
48042;SDS011;33988;47.992;8.820;2023-02-02T08:18:56;5.82;;;1.45;;
48042;SDS011;33988;47.992;8.820;2023-02-02T08:21:23;3.20;;;1.27;;
48042;SDS011;33988;47.992;8.820;2023-02-02T08:23:51;5.88;;;1.90;;
48042;SDS011;33988;47.992;8.820;2023-02-02T08:26:26;3.42;;;1.30;;
48042;SDS011;33988;47.992;8.820;2023-02-02T08:28:59;2.67;;;1.55;;
48042;SDS011;33988;47.992;8.820;2023-02-02T08:31:33;4.13;;;1.30;;
48042;SDS011;33988;47.992;8.820;2023-02-02T08:34:07;3.05;;;1.20;;
48042;SDS011;33988;47.992;8.820;2023-02-02T08:36:34;4.13;;;1.50;;
48042;SDS011;33988;47.992;8.820;2023-02-02T08:39:02;4.10;;;1.52;;
48042;SDS011;33988;47.992;8.820;2023-02-02T08:41:35;3.78;;;1.17;;
48042;SDS011;33988;47.992;8.820;2023-02-02T08:44:06;2.97;;;1.33;;
48042;SDS011;33988;47.992;8.820;2023-02-02T08:46:36;4.10;;;1.42;;
48042;SDS011;33988;47.992;8.820;2023-02-02T08:49:03;3.60;;;1.40;;
48042;SDS011;33988;47.992;8.820;2023-02-02T08:51:31;3.53;;;1.38;;
48042;SDS011;33988;47.992;8.820;2023-02-02T08:53:58;3.63;;;1.80;;
48042;SDS011;33988;47.992;8.820;2023-02-02T08:56:25;5.22;;;1.58;;
48042;SDS011;33988;47.992;8.820;2023-02-02T08:58:53;3.38;;;1.50;;
48042;SDS011;33988;47.992;8.820;2023-02-02T09:01:30;5.10;;;1.50;;
48042;SDS011;33988;47.992;8.820;2023-02-02T09:04:03;3.47;;;1.30;;
48042;SDS011;33988;47.992;8.820;2023-02-02T09:06:39;4.03;;;1.50;;
48042;SDS011;33988;47.992;8.820;2023-02-02T09:09:12;3.65;;;1.30;;
48042;SDS011;33988;47.992;8.820;2023-02-02T09:11:41;3.78;;;1.45;;
48042;SDS011;33988;47.992;8.820;2023-02-02T09:14:09;7.25;;;1.80;;
48042;SDS011;33988;47.992;8.820;2023-02-02T09:16:39;5.07;;;1.50;;
48042;SDS011;33988;47.992;8.820;2023-02-02T09:19:11;3.67;;;1.60;;
48042;SDS011;33988;47.992;8.820;2023-02-02T09:21:38;7.70;;;1.80;;
48042;SDS011;33988;47.992;8.820;2023-02-02T09:24:06;3.53;;;1.27;;
48042;SDS011;33988;47.992;8.820;2023-02-02T09:26:38;3.88;;;1.65;;
48042;SDS011;33988;47.992;8.820;2023-02-02T09:29:13;4.82;;;1.60;;
48042;SDS011;33988;47.992;8.820;2023-02-02T09:31:44;2.67;;;1.38;;
48042;SDS011;33988;47.992;8.820;2023-02-02T09:34:12;3.30;;;1.60;;
48042;SDS011;33988;47.992;8.820;2023-02-02T09:36:41;4.60;;;1.50;;
48042;SDS011;33988;47.992;8.820;2023-02-02T09:39:12;3.45;;;1.33;;
48042;SDS011;33988;47.992;8.820;2023-02-02T09:47:22;2.40;;;1.17;;
48042;SDS011;33988;47.992;8.820;2023-02-02T09:52:30;4.57;;;1.33;;
48042;SDS011;33988;47.992;8.820;2023-02-02T09:55:34;3.30;;;1.50;;
48042;SDS011;33988;47.992;8.820;2023-02-02T10:03:36;4.15;;;1.30;;
48042;SDS011;33988;47.992;8.820;2023-02-02T10:09:00;3.50;;;1.13;;
48042;SDS011;33988;47.992;8.820;2023-02-02T10:11:45;1.95;;;1.30;;
48042;SDS011;33988;47.992;8.820;2023-02-02T10:14:19;1.33;;;1.02;;
48042;SDS011;33988;47.992;8.820;2023-02-02T10:17:21;1.20;;;0.93;;
48042;SDS011;33988;47.992;8.820;2023-02-02T10:47:00;2.80;;;1.25;;
48042;SDS011;33988;47.992;8.820;2023-02-02T10:49:36;2.70;;;1.05;;
48042;SDS011;33988;47.992;8.820;2023-02-02T11:00:47;2.45;;;1.13;;
48042;SDS011;33988;47.992;8.820;2023-02-02T11:03:27;2.03;;;1.00;;
48042;SDS011;33988;47.992;8.820;2023-02-02T11:06:02;2.47;;;1.35;;
48042;SDS011;33988;47.992;8.820;2023-02-02T11:08:51;2.08;;;1.00;;
48042;SDS011;33988;47.992;8.820;2023-02-02T11:11:25;4.00;;;1.88;;
48042;SDS011;33988;47.992;8.820;2023-02-02T11:16:36;7.40;;;2.35;;
48042;SDS011;33988;47.992;8.820;2023-02-02T11:21:49;1.98;;;1.20;;
48042;SDS011;33988;47.992;8.820;2023-02-02T11:27:02;3.20;;;2.00;;
48042;SDS011;33988;47.992;8.820;2023-02-02T11:29:40;4.28;;;1.88;;
48042;SDS011;33988;47.992;8.820;2023-02-02T11:32:16;2.45;;;1.40;;
48042;SDS011;33988;47.992;8.820;2023-02-02T11:37:35;5.28;;;1.33;;
48042;SDS011;33988;47.992;8.820;2023-02-02T11:42:58;3.33;;;1.35;;
48042;SDS011;33988;47.992;8.820;2023-02-02T11:45:38;2.13;;;1.20;;
48042;SDS011;33988;47.992;8.820;2023-02-02T11:50:50;0.70;;;0.60;;
48042;SDS011;33988;47.992;8.820;2023-02-02T11:53:35;2.80;;;0.77;;
48042;SDS011;33988;47.992;8.820;2023-02-02T11:56:19;1.20;;;0.60;;
48042;SDS011;33988;47.992;8.820;2023-02-02T11:58:51;0.75;;;0.57;;
48042;SDS011;33988;47.992;8.820;2023-02-02T12:01:25;1.13;;;0.88;;
48042;SDS011;33988;47.992;8.820;2023-02-02T12:04:40;1.88;;;1.23;;
48042;SDS011;33988;47.992;8.820;2023-02-02T12:06:51;1.52;;;0.80;;
48042;SDS011;33988;47.992;8.820;2023-02-02T12:09:22;1.85;;;0.88;;
48042;SDS011;33988;47.992;8.820;2023-02-02T12:21:20;1.90;;;0.85;;
48042;SDS011;33988;47.992;8.820;2023-02-02T12:26:38;0.70;;;0.65;;
48042;SDS011;33988;47.992;8.820;2023-02-02T12:32:14;1.38;;;0.55;;
48042;SDS011;33988;47.992;8.820;2023-02-02T12:38:27;1.42;;;0.55;;
48042;SDS011;33988;47.992;8.820;2023-02-02T13:01:20;1.65;;;0.70;;
48042;SDS011;33988;47.992;8.820;2023-02-02T13:04:45;0.95;;;0.70;;
48042;SDS011;33988;47.992;8.820;2023-02-02T13:07:50;1.33;;;0.60;;
48042;SDS011;33988;47.992;8.820;2023-02-02T13:10:33;4.72;;;0.90;;
48042;SDS011;33988;47.992;8.820;2023-02-02T13:13:08;3.05;;;0.70;;
48042;SDS011;33988;47.992;8.820;2023-02-02T13:15:54;1.85;;;1.00;;
48042;SDS011;33988;47.992;8.820;2023-02-02T13:18:33;1.85;;;0.90;;
48042;SDS011;33988;47.992;8.820;2023-02-02T13:21:10;1.17;;;0.70;;
48042;SDS011;33988;47.992;8.820;2023-02-02T13:23:43;2.38;;;1.00;;
48042;SDS011;33988;47.992;8.820;2023-02-02T13:26:21;3.83;;;1.00;;
48042;SDS011;33988;47.992;8.820;2023-02-02T13:28:56;1.95;;;0.90;;
48042;SDS011;33988;47.992;8.820;2023-02-02T13:31:44;2.55;;;1.20;;
48042;SDS011;33988;47.992;8.820;2023-02-02T13:39:55;1.42;;;0.70;;
48042;SDS011;33988;47.992;8.820;2023-02-02T13:45:20;3.30;;;0.90;;
48042;SDS011;33988;47.992;8.820;2023-02-02T14:00:18;2.88;;;1.30;;
48042;SDS011;33988;47.992;8.820;2023-02-02T14:03:39;2.10;;;1.02;;
48042;SDS011;33988;47.992;8.820;2023-02-02T14:08:46;3.17;;;1.17;;
48042;SDS011;33988;47.992;8.820;2023-02-02T14:11:24;2.95;;;1.38;;
48042;SDS011;33988;47.992;8.820;2023-02-02T14:17:01;2.88;;;1.30;;
48042;SDS011;33988;47.992;8.820;2023-02-02T14:24:46;3.17;;;1.13;;
48042;SDS011;33988;47.992;8.820;2023-02-02T14:34:57;2.72;;;1.02;;
48042;SDS011;33988;47.992;8.820;2023-02-02T14:43:41;3.40;;;1.40;;
48042;SDS011;33988;47.992;8.820;2023-02-02T14:46:32;4.57;;;1.35;;
48042;SDS011;33988;47.992;8.820;2023-02-02T14:51:30;4.55;;;1.27;;
48042;SDS011;33988;47.992;8.820;2023-02-02T14:54:16;2.63;;;1.40;;
48042;SDS011;33988;47.992;8.820;2023-02-02T14:56:55;2.05;;;1.10;;
48042;SDS011;33988;47.992;8.820;2023-02-02T14:59:30;3.42;;;1.08;;
48042;SDS011;33988;47.992;8.820;2023-02-02T15:04:47;2.97;;;1.00;;
48042;SDS011;33988;47.992;8.820;2023-02-02T15:09:51;4.57;;;1.70;;
48042;SDS011;33988;47.992;8.820;2023-02-02T15:12:38;2.55;;;1.00;;
48042;SDS011;33988;47.992;8.820;2023-02-02T15:18:03;1.65;;;1.10;;
48042;SDS011;33988;47.992;8.820;2023-02-02T15:20:49;2.35;;;1.42;;
48042;SDS011;33988;47.992;8.820;2023-02-02T15:23:29;4.82;;;1.67;;
48042;SDS011;33988;47.992;8.820;2023-02-02T15:26:07;3.90;;;1.20;;
48042;SDS011;33988;47.992;8.820;2023-02-02T15:28:57;1.85;;;1.00;;
48042;SDS011;33988;47.992;8.820;2023-02-02T15:31:31;2.22;;;1.10;;
48042;SDS011;33988;47.992;8.820;2023-02-02T15:34:04;2.08;;;1.00;;
48042;SDS011;33988;47.992;8.820;2023-02-02T15:36:54;2.90;;;1.10;;
48042;SDS011;33988;47.992;8.820;2023-02-02T15:42:25;2.72;;;1.30;;
48042;SDS011;33988;47.992;8.820;2023-02-02T15:48:08;3.58;;;1.23;;
48042;SDS011;33988;47.992;8.820;2023-02-02T15:50:52;3.28;;;1.55;;
48042;SDS011;33988;47.992;8.820;2023-02-02T15:53:23;3.90;;;1.30;;
48042;SDS011;33988;47.992;8.820;2023-02-02T15:58:49;2.15;;;1.13;;
48042;SDS011;33988;47.992;8.820;2023-02-02T16:01:21;2.33;;;1.23;;
48042;SDS011;33988;47.992;8.820;2023-02-02T16:07:00;4.32;;;1.70;;
48042;SDS011;33988;47.992;8.820;2023-02-02T16:09:32;3.83;;;1.80;;
48042;SDS011;33988;47.992;8.820;2023-02-02T16:12:04;5.22;;;2.00;;
48042;SDS011;33988;47.992;8.820;2023-02-02T16:14:36;4.13;;;1.88;;
48042;SDS011;33988;47.992;8.820;2023-02-02T16:17:11;4.63;;;1.80;;
48042;SDS011;33988;47.992;8.820;2023-02-02T16:19:48;4.85;;;1.95;;
48042;SDS011;33988;47.992;8.820;2023-02-02T16:22:17;4.23;;;1.63;;
48042;SDS011;33988;47.992;8.820;2023-02-02T16:24:50;2.58;;;1.50;;
48042;SDS011;33988;47.992;8.820;2023-02-02T16:27:24;3.80;;;1.73;;
48042;SDS011;33988;47.992;8.820;2023-02-02T16:29:59;3.33;;;1.52;;
48042;SDS011;33988;47.992;8.820;2023-02-02T16:32:36;3.30;;;1.60;;
48042;SDS011;33988;47.992;8.820;2023-02-02T16:40:45;3.33;;;1.98;;
48042;SDS011;33988;47.992;8.820;2023-02-02T16:45:49;4.05;;;2.10;;
48042;SDS011;33988;47.992;8.820;2023-02-02T16:53:55;4.53;;;2.05;;
48042;SDS011;33988;47.992;8.820;2023-02-02T16:59:03;5.80;;;2.13;;
48042;SDS011;33988;47.992;8.820;2023-02-02T17:01:53;5.45;;;2.42;;
48042;SDS011;33988;47.992;8.820;2023-02-02T17:04:25;5.88;;;2.72;;
48042;SDS011;33988;47.992;8.820;2023-02-02T17:07:03;5.70;;;3.15;;
48042;SDS011;33988;47.992;8.820;2023-02-02T17:09:42;5.28;;;2.40;;
48042;SDS011;33988;47.992;8.820;2023-02-02T17:15:03;5.25;;;2.30;;
48042;SDS011;33988;47.992;8.820;2023-02-02T17:17:54;4.60;;;1.83;;
48042;SDS011;33988;47.992;8.820;2023-02-02T17:20:24;4.22;;;2.28;;
48042;SDS011;33988;47.992;8.820;2023-02-02T17:22:55;4.22;;;2.00;;
48042;SDS011;33988;47.992;8.820;2023-02-02T17:25:34;3.08;;;2.17;;
48042;SDS011;33988;47.992;8.820;2023-02-02T17:28:06;5.75;;;2.50;;
48042;SDS011;33988;47.992;8.820;2023-02-02T17:30:38;3.75;;;2.10;;
48042;SDS011;33988;47.992;8.820;2023-02-02T17:33:11;4.78;;;1.88;;
48042;SDS011;33988;47.992;8.820;2023-02-02T17:35:43;4.82;;;2.10;;
48042;SDS011;33988;47.992;8.820;2023-02-02T17:38:21;6.35;;;2.17;;
48042;SDS011;33988;47.992;8.820;2023-02-02T17:40:50;5.55;;;2.28;;
48042;SDS011;33988;47.992;8.820;2023-02-02T17:43:18;3.67;;;1.92;;
48042;SDS011;33988;47.992;8.820;2023-02-02T17:45:45;5.43;;;1.75;;
48042;SDS011;33988;47.992;8.820;2023-02-02T17:48:12;3.13;;;1.90;;
48042;SDS011;33988;47.992;8.820;2023-02-02T17:50:42;5.93;;;2.13;;
48042;SDS011;33988;47.992;8.820;2023-02-02T17:53:16;5.70;;;2.53;;
48042;SDS011;33988;47.992;8.820;2023-02-02T17:55:47;5.43;;;2.42;;
48042;SDS011;33988;47.992;8.820;2023-02-02T17:58:18;4.20;;;2.67;;
48042;SDS011;33988;47.992;8.820;2023-02-02T18:00:50;6.22;;;2.70;;
48042;SDS011;33988;47.992;8.820;2023-02-02T18:06:00;4.97;;;2.47;;
48042;SDS011;33988;47.992;8.820;2023-02-02T18:08:30;6.05;;;2.45;;
48042;SDS011;33988;47.992;8.820;2023-02-02T18:10:58;5.40;;;2.83;;
48042;SDS011;33988;47.992;8.820;2023-02-02T18:13:25;4.50;;;2.80;;
48042;SDS011;33988;47.992;8.820;2023-02-02T18:15:53;7.95;;;3.03;;
48042;SDS011;33988;47.992;8.820;2023-02-02T18:18:25;7.45;;;3.03;;
48042;SDS011;33988;47.992;8.820;2023-02-02T18:20:52;5.38;;;2.75;;
48042;SDS011;33988;47.992;8.820;2023-02-02T18:23:19;8.30;;;3.70;;
48042;SDS011;33988;47.992;8.820;2023-02-02T18:25:52;6.85;;;2.50;;
48042;SDS011;33988;47.992;8.820;2023-02-02T18:28:19;3.38;;;2.15;;
48042;SDS011;33988;47.992;8.820;2023-02-02T18:30:48;4.90;;;2.53;;
48042;SDS011;33988;47.992;8.820;2023-02-02T18:33:15;5.60;;;2.35;;
48042;SDS011;33988;47.992;8.820;2023-02-02T18:35:45;6.07;;;2.35;;
48042;SDS011;33988;47.992;8.820;2023-02-02T18:38:13;5.03;;;2.30;;
48042;SDS011;33988;47.992;8.820;2023-02-02T18:40:43;5.53;;;2.00;;
48042;SDS011;33988;47.992;8.820;2023-02-02T18:43:10;5.03;;;2.30;;
48042;SDS011;33988;47.992;8.820;2023-02-02T18:45:39;4.18;;;2.10;;
48042;SDS011;33988;47.992;8.820;2023-02-02T18:48:09;3.50;;;2.10;;
48042;SDS011;33988;47.992;8.820;2023-02-02T18:50:39;5.00;;;2.15;;
48042;SDS011;33988;47.992;8.820;2023-02-02T18:53:06;5.05;;;1.83;;
48042;SDS011;33988;47.992;8.820;2023-02-02T18:55:38;4.00;;;2.00;;
48042;SDS011;33988;47.992;8.820;2023-02-02T18:58:05;5.63;;;1.85;;
48042;SDS011;33988;47.992;8.820;2023-02-02T19:00:35;2.95;;;1.75;;
48042;SDS011;33988;47.992;8.820;2023-02-02T19:03:05;2.42;;;1.50;;
48042;SDS011;33988;47.992;8.820;2023-02-02T19:05:32;4.95;;;2.05;;
48042;SDS011;33988;47.992;8.820;2023-02-02T19:08:20;2.95;;;1.67;;
48042;SDS011;33988;47.992;8.820;2023-02-02T19:10:47;2.90;;;1.70;;
48042;SDS011;33988;47.992;8.820;2023-02-02T19:13:22;2.53;;;1.63;;